sensor_id;sensor_type;location;lat;lon;timestamp;P1;durP1;ratioP1;P2;durP2;ratioP2
62056;SDS011;48016;50.284;18.860;2024-01-25T00:02:08;9.00;;;3.00;;
62056;SDS011;48016;50.284;18.860;2024-01-25T00:04:35;11.60;;;3.60;;
62056;SDS011;48016;50.284;18.860;2024-01-25T00:07:01;9.10;;;3.60;;
62056;SDS011;48016;50.284;18.860;2024-01-25T00:09:28;9.00;;;2.80;;
62056;SDS011;48016;50.284;18.860;2024-01-25T00:11:54;9.60;;;2.50;;
62056;SDS011;48016;50.284;18.860;2024-01-25T00:14:21;10.30;;;3.00;;
62056;SDS011;48016;50.284;18.860;2024-01-25T00:16:47;10.00;;;3.10;;
62056;SDS011;48016;50.284;18.860;2024-01-25T00:19:14;11.10;;;2.90;;
62056;SDS011;48016;50.284;18.860;2024-01-25T00:21:41;7.60;;;2.40;;
62056;SDS011;48016;50.284;18.860;2024-01-25T00:24:11;7.20;;;2.20;;
62056;SDS011;48016;50.284;18.860;2024-01-25T00:26:38;8.60;;;2.40;;
62056;SDS011;48016;50.284;18.860;2024-01-25T00:29:05;8.30;;;2.20;;
62056;SDS011;48016;50.284;18.860;2024-01-25T00:31:31;6.30;;;2.30;;
62056;SDS011;48016;50.284;18.860;2024-01-25T00:33:58;7.80;;;2.30;;
62056;SDS011;48016;50.284;18.860;2024-01-25T00:36:25;6.70;;;2.20;;
62056;SDS011;48016;50.284;18.860;2024-01-25T00:38:52;8.90;;;2.00;;
62056;SDS011;48016;50.284;18.860;2024-01-25T00:41:19;5.90;;;2.10;;
62056;SDS011;48016;50.284;18.860;2024-01-25T00:43:46;7.20;;;2.10;;
62056;SDS011;48016;50.284;18.860;2024-01-25T00:46:14;8.40;;;2.50;;
62056;SDS011;48016;50.284;18.860;2024-01-25T00:48:41;6.90;;;1.90;;
62056;SDS011;48016;50.284;18.860;2024-01-25T00:51:09;7.50;;;1.90;;
62056;SDS011;48016;50.284;18.860;2024-01-25T00:53:40;7.80;;;2.10;;
62056;SDS011;48016;50.284;18.860;2024-01-25T00:56:07;8.40;;;2.30;;
62056;SDS011;48016;50.284;18.860;2024-01-25T00:58:34;7.40;;;1.90;;
62056;SDS011;48016;50.284;18.860;2024-01-25T01:01:01;8.30;;;2.10;;
62056;SDS011;48016;50.284;18.860;2024-01-25T01:03:28;7.30;;;2.30;;
62056;SDS011;48016;50.284;18.860;2024-01-25T01:05:55;7.30;;;2.00;;
62056;SDS011;48016;50.284;18.860;2024-01-25T01:08:24;7.20;;;1.50;;
62056;SDS011;48016;50.284;18.860;2024-01-25T01:10:51;4.00;;;1.40;;
62056;SDS011;48016;50.284;18.860;2024-01-25T01:13:18;7.40;;;1.60;;
62056;SDS011;48016;50.284;18.860;2024-01-25T01:15:44;6.30;;;1.40;;
62056;SDS011;48016;50.284;18.860;2024-01-25T01:18:11;7.00;;;1.80;;
62056;SDS011;48016;50.284;18.860;2024-01-25T01:20:37;4.60;;;1.50;;
62056;SDS011;48016;50.284;18.860;2024-01-25T01:23:04;6.10;;;1.70;;
62056;SDS011;48016;50.284;18.860;2024-01-25T01:25:30;6.40;;;1.60;;
62056;SDS011;48016;50.284;18.860;2024-01-25T01:27:57;7.40;;;1.40;;
62056;SDS011;48016;50.284;18.860;2024-01-25T01:43:01;6.60;;;2.00;;
62056;SDS011;48016;50.284;18.860;2024-01-25T01:45:28;4.40;;;1.30;;
62056;SDS011;48016;50.284;18.860;2024-01-25T01:47:55;4.40;;;1.10;;
62056;SDS011;48016;50.284;18.860;2024-01-25T01:50:22;4.90;;;1.50;;
62056;SDS011;48016;50.284;18.860;2024-01-25T01:52:49;4.40;;;1.30;;
62056;SDS011;48016;50.284;18.860;2024-01-25T01:55:17;6.00;;;1.60;;
62056;SDS011;48016;50.284;18.860;2024-01-25T01:57:44;4.00;;;1.50;;
62056;SDS011;48016;50.284;18.860;2024-01-25T02:00:14;5.80;;;1.50;;
62056;SDS011;48016;50.284;18.860;2024-01-25T02:02:42;8.90;;;1.40;;
62056;SDS011;48016;50.284;18.860;2024-01-25T02:05:11;8.70;;;1.80;;
62056;SDS011;48016;50.284;18.860;2024-01-25T02:07:38;4.70;;;1.10;;
62056;SDS011;48016;50.284;18.860;2024-01-25T02:10:07;7.70;;;2.30;;
62056;SDS011;48016;50.284;18.860;2024-01-25T02:12:35;5.60;;;1.30;;
62056;SDS011;48016;50.284;18.860;2024-01-25T02:15:03;5.20;;;1.40;;
62056;SDS011;48016;50.284;18.860;2024-01-25T02:17:30;6.40;;;1.50;;
62056;SDS011;48016;50.284;18.860;2024-01-25T02:19:56;9.20;;;1.90;;
62056;SDS011;48016;50.284;18.860;2024-01-25T02:22:23;9.90;;;2.50;;
62056;SDS011;48016;50.284;18.860;2024-01-25T02:24:49;6.30;;;1.40;;
62056;SDS011;48016;50.284;18.860;2024-01-25T02:27:16;7.80;;;1.40;;
62056;SDS011;48016;50.284;18.860;2024-01-25T02:29:43;8.80;;;1.50;;
62056;SDS011;48016;50.284;18.860;2024-01-25T02:32:09;8.30;;;1.30;;
62056;SDS011;48016;50.284;18.860;2024-01-25T02:34:36;6.10;;;1.40;;
62056;SDS011;48016;50.284;18.860;2024-01-25T02:37:03;8.50;;;1.50;;
62056;SDS011;48016;50.284;18.860;2024-01-25T02:39:29;6.70;;;1.60;;
62056;SDS011;48016;50.284;18.860;2024-01-25T02:41:56;6.80;;;1.30;;
62056;SDS011;48016;50.284;18.860;2024-01-25T02:44:22;9.40;;;1.70;;
62056;SDS011;48016;50.284;18.860;2024-01-25T02:46:49;6.10;;;1.50;;
62056;SDS011;48016;50.284;18.860;2024-01-25T02:49:15;10.00;;;1.80;;
62056;SDS011;48016;50.284;18.860;2024-01-25T02:51:42;5.30;;;2.00;;
62056;SDS011;48016;50.284;18.860;2024-01-25T02:54:08;7.00;;;1.30;;
62056;SDS011;48016;50.284;18.860;2024-01-25T02:56:35;8.80;;;1.40;;
62056;SDS011;48016;50.284;18.860;2024-01-25T02:59:02;6.60;;;1.60;;
62056;SDS011;48016;50.284;18.860;2024-01-25T03:01:36;7.90;;;1.90;;
62056;SDS011;48016;50.284;18.860;2024-01-25T03:04:07;6.00;;;1.10;;
62056;SDS011;48016;50.284;18.860;2024-01-25T03:06:34;6.10;;;1.50;;
62056;SDS011;48016;50.284;18.860;2024-01-25T03:09:00;10.50;;;1.80;;
62056;SDS011;48016;50.284;18.860;2024-01-25T03:11:27;9.20;;;1.70;;
62056;SDS011;48016;50.284;18.860;2024-01-25T03:13:54;9.00;;;1.60;;
62056;SDS011;48016;50.284;18.860;2024-01-25T03:16:20;4.70;;;1.30;;
62056;SDS011;48016;50.284;18.860;2024-01-25T03:18:47;5.80;;;1.50;;
62056;SDS011;48016;50.284;18.860;2024-01-25T03:21:13;8.00;;;1.50;;
62056;SDS011;48016;50.284;18.860;2024-01-25T03:23:40;4.40;;;1.20;;
62056;SDS011;48016;50.284;18.860;2024-01-25T03:26:06;7.00;;;1.30;;
62056;SDS011;48016;50.284;18.860;2024-01-25T03:28:36;9.60;;;1.50;;
62056;SDS011;48016;50.284;18.860;2024-01-25T03:31:04;6.40;;;1.30;;
62056;SDS011;48016;50.284;18.860;2024-01-25T03:33:31;5.50;;;1.20;;
62056;SDS011;48016;50.284;18.860;2024-01-25T03:36:02;6.10;;;1.50;;
62056;SDS011;48016;50.284;18.860;2024-01-25T03:38:30;7.20;;;1.40;;
62056;SDS011;48016;50.284;18.860;2024-01-25T03:40:56;8.00;;;1.60;;
62056;SDS011;48016;50.284;18.860;2024-01-25T03:43:25;5.50;;;1.70;;
62056;SDS011;48016;50.284;18.860;2024-01-25T03:45:52;6.70;;;1.70;;
62056;SDS011;48016;50.284;18.860;2024-01-25T03:48:28;5.00;;;1.20;;
62056;SDS011;48016;50.284;18.860;2024-01-25T03:51:01;6.80;;;1.20;;
62056;SDS011;48016;50.284;18.860;2024-01-25T03:53:27;5.00;;;1.40;;
62056;SDS011;48016;50.284;18.860;2024-01-25T03:55:54;7.70;;;1.80;;
62056;SDS011;48016;50.284;18.860;2024-01-25T03:58:21;6.30;;;1.20;;
62056;SDS011;48016;50.284;18.860;2024-01-25T04:00:47;5.30;;;1.40;;
62056;SDS011;48016;50.284;18.860;2024-01-25T04:03:14;6.70;;;1.10;;
62056;SDS011;48016;50.284;18.860;2024-01-25T04:05:43;9.00;;;1.50;;
62056;SDS011;48016;50.284;18.860;2024-01-25T04:08:10;10.70;;;1.80;;
62056;SDS011;48016;50.284;18.860;2024-01-25T04:10:36;7.90;;;2.10;;
62056;SDS011;48016;50.284;18.860;2024-01-25T04:13:03;8.90;;;1.30;;
62056;SDS011;48016;50.284;18.860;2024-01-25T04:15:33;6.20;;;1.60;;
62056;SDS011;48016;50.284;18.860;2024-01-25T04:18:00;6.60;;;1.40;;
62056;SDS011;48016;50.284;18.860;2024-01-25T04:20:26;8.90;;;1.80;;
62056;SDS011;48016;50.284;18.860;2024-01-25T04:22:53;6.60;;;1.40;;
62056;SDS011;48016;50.284;18.860;2024-01-25T04:25:19;9.60;;;1.50;;
62056;SDS011;48016;50.284;18.860;2024-01-25T04:27:46;6.60;;;1.80;;
62056;SDS011;48016;50.284;18.860;2024-01-25T04:30:13;5.30;;;1.50;;
62056;SDS011;48016;50.284;18.860;2024-01-25T04:32:40;6.90;;;1.40;;
62056;SDS011;48016;50.284;18.860;2024-01-25T04:35:07;7.90;;;1.80;;
62056;SDS011;48016;50.284;18.860;2024-01-25T04:40:46;12.90;;;1.80;;
62056;SDS011;48016;50.284;18.860;2024-01-25T04:43:13;6.00;;;1.50;;
62056;SDS011;48016;50.284;18.860;2024-01-25T04:45:40;4.70;;;1.50;;
62056;SDS011;48016;50.284;18.860;2024-01-25T04:48:07;6.80;;;1.80;;
62056;SDS011;48016;50.284;18.860;2024-01-25T04:50:33;10.00;;;2.30;;
62056;SDS011;48016;50.284;18.860;2024-01-25T04:53:02;9.60;;;1.90;;
62056;SDS011;48016;50.284;18.860;2024-01-25T04:55:28;7.60;;;2.00;;
62056;SDS011;48016;50.284;18.860;2024-01-25T04:57:56;9.30;;;2.10;;
62056;SDS011;48016;50.284;18.860;2024-01-25T05:02:50;9.60;;;1.80;;
62056;SDS011;48016;50.284;18.860;2024-01-25T05:07:43;11.40;;;1.70;;
62056;SDS011;48016;50.284;18.860;2024-01-25T05:10:10;7.60;;;1.70;;
62056;SDS011;48016;50.284;18.860;2024-01-25T05:12:36;7.40;;;1.60;;
62056;SDS011;48016;50.284;18.860;2024-01-25T05:15:03;7.50;;;1.60;;
62056;SDS011;48016;50.284;18.860;2024-01-25T05:17:30;7.30;;;1.60;;
62056;SDS011;48016;50.284;18.860;2024-01-25T05:19:57;6.90;;;1.60;;
62056;SDS011;48016;50.284;18.860;2024-01-25T05:22:23;6.60;;;1.60;;
62056;SDS011;48016;50.284;18.860;2024-01-25T05:24:50;8.00;;;2.00;;
62056;SDS011;48016;50.284;18.860;2024-01-25T05:27:17;6.20;;;1.20;;
62056;SDS011;48016;50.284;18.860;2024-01-25T05:29:44;9.40;;;1.70;;
62056;SDS011;48016;50.284;18.860;2024-01-25T05:32:11;7.60;;;1.80;;
62056;SDS011;48016;50.284;18.860;2024-01-25T05:34:37;11.00;;;2.00;;
62056;SDS011;48016;50.284;18.860;2024-01-25T05:37:04;7.00;;;1.60;;
62056;SDS011;48016;50.284;18.860;2024-01-25T05:39:30;10.20;;;2.10;;
62056;SDS011;48016;50.284;18.860;2024-01-25T05:41:58;10.60;;;2.00;;
62056;SDS011;48016;50.284;18.860;2024-01-25T05:44:25;8.10;;;1.70;;
62056;SDS011;48016;50.284;18.860;2024-01-25T05:46:51;6.40;;;2.70;;
62056;SDS011;48016;50.284;18.860;2024-01-25T05:49:18;5.40;;;1.70;;
62056;SDS011;48016;50.284;18.860;2024-01-25T05:51:45;3.30;;;1.50;;
62056;SDS011;48016;50.284;18.860;2024-01-25T05:54:11;6.40;;;1.40;;
62056;SDS011;48016;50.284;18.860;2024-01-25T05:56:38;5.40;;;1.70;;
62056;SDS011;48016;50.284;18.860;2024-01-25T05:59:04;8.30;;;1.70;;
62056;SDS011;48016;50.284;18.860;2024-01-25T06:01:31;6.10;;;1.70;;
62056;SDS011;48016;50.284;18.860;2024-01-25T06:03:58;5.20;;;2.00;;
62056;SDS011;48016;50.284;18.860;2024-01-25T06:06:24;7.60;;;1.80;;
62056;SDS011;48016;50.284;18.860;2024-01-25T06:08:51;9.10;;;2.00;;
62056;SDS011;48016;50.284;18.860;2024-01-25T06:11:18;5.60;;;2.10;;
62056;SDS011;48016;50.284;18.860;2024-01-25T06:13:44;7.60;;;1.80;;
62056;SDS011;48016;50.284;18.860;2024-01-25T06:16:11;6.50;;;1.60;;
62056;SDS011;48016;50.284;18.860;2024-01-25T06:18:38;6.00;;;2.20;;
62056;SDS011;48016;50.284;18.860;2024-01-25T06:21:05;6.30;;;1.70;;
62056;SDS011;48016;50.284;18.860;2024-01-25T06:23:31;8.80;;;1.80;;
62056;SDS011;48016;50.284;18.860;2024-01-25T06:25:58;6.50;;;1.60;;
62056;SDS011;48016;50.284;18.860;2024-01-25T06:28:24;8.70;;;2.10;;
62056;SDS011;48016;50.284;18.860;2024-01-25T06:30:52;9.90;;;2.70;;
62056;SDS011;48016;50.284;18.860;2024-01-25T06:33:18;11.40;;;3.00;;
62056;SDS011;48016;50.284;18.860;2024-01-25T06:35:45;8.60;;;3.30;;
62056;SDS011;48016;50.284;18.860;2024-01-25T06:38:13;7.90;;;2.60;;
62056;SDS011;48016;50.284;18.860;2024-01-25T06:40:39;5.50;;;2.50;;
62056;SDS011;48016;50.284;18.860;2024-01-25T06:43:06;6.10;;;2.40;;
62056;SDS011;48016;50.284;18.860;2024-01-25T06:45:32;7.60;;;2.50;;
62056;SDS011;48016;50.284;18.860;2024-01-25T06:47:59;9.30;;;3.20;;
62056;SDS011;48016;50.284;18.860;2024-01-25T06:50:26;7.20;;;2.10;;
62056;SDS011;48016;50.284;18.860;2024-01-25T06:52:53;9.80;;;2.70;;
62056;SDS011;48016;50.284;18.860;2024-01-25T06:55:21;8.70;;;2.20;;
62056;SDS011;48016;50.284;18.860;2024-01-25T06:57:48;6.90;;;1.70;;
62056;SDS011;48016;50.284;18.860;2024-01-25T07:00:15;6.20;;;1.90;;
62056;SDS011;48016;50.284;18.860;2024-01-25T07:02:42;7.40;;;2.00;;
62056;SDS011;48016;50.284;18.860;2024-01-25T07:05:09;10.40;;;2.10;;
62056;SDS011;48016;50.284;18.860;2024-01-25T07:07:35;7.30;;;2.00;;
62056;SDS011;48016;50.284;18.860;2024-01-25T07:10:05;5.50;;;1.90;;
62056;SDS011;48016;50.284;18.860;2024-01-25T07:12:32;6.30;;;1.90;;
62056;SDS011;48016;50.284;18.860;2024-01-25T07:14:59;5.20;;;1.30;;
62056;SDS011;48016;50.284;18.860;2024-01-25T07:17:26;9.70;;;2.00;;
62056;SDS011;48016;50.284;18.860;2024-01-25T07:19:52;9.50;;;1.90;;
62056;SDS011;48016;50.284;18.860;2024-01-25T07:22:19;4.70;;;1.80;;
62056;SDS011;48016;50.284;18.860;2024-01-25T07:24:48;6.30;;;1.90;;
62056;SDS011;48016;50.284;18.860;2024-01-25T07:27:15;5.70;;;1.40;;
62056;SDS011;48016;50.284;18.860;2024-01-25T07:29:45;5.30;;;1.60;;
62056;SDS011;48016;50.284;18.860;2024-01-25T07:32:12;6.70;;;1.70;;
62056;SDS011;48016;50.284;18.860;2024-01-25T07:34:39;9.10;;;1.70;;
62056;SDS011;48016;50.284;18.860;2024-01-25T07:37:06;8.00;;;1.90;;
62056;SDS011;48016;50.284;18.860;2024-01-25T07:39:32;7.20;;;1.60;;
62056;SDS011;48016;50.284;18.860;2024-01-25T07:41:59;6.30;;;1.90;;
62056;SDS011;48016;50.284;18.860;2024-01-25T07:44:26;8.50;;;2.10;;
62056;SDS011;48016;50.284;18.860;2024-01-25T07:46:53;7.90;;;2.20;;
62056;SDS011;48016;50.284;18.860;2024-01-25T07:49:19;6.80;;;1.80;;
62056;SDS011;48016;50.284;18.860;2024-01-25T07:51:47;6.60;;;1.70;;
62056;SDS011;48016;50.284;18.860;2024-01-25T07:54:14;5.60;;;1.80;;
62056;SDS011;48016;50.284;18.860;2024-01-25T07:56:41;8.90;;;1.80;;
62056;SDS011;48016;50.284;18.860;2024-01-25T07:59:07;8.70;;;2.10;;
62056;SDS011;48016;50.284;18.860;2024-01-25T08:01:34;9.10;;;2.10;;
62056;SDS011;48016;50.284;18.860;2024-01-25T08:06:29;6.20;;;2.10;;
62056;SDS011;48016;50.284;18.860;2024-01-25T08:08:56;6.50;;;2.10;;
62056;SDS011;48016;50.284;18.860;2024-01-25T08:11:23;8.10;;;2.00;;
62056;SDS011;48016;50.284;18.860;2024-01-25T08:13:50;8.60;;;2.30;;
62056;SDS011;48016;50.284;18.860;2024-01-25T08:16:17;7.40;;;1.70;;
62056;SDS011;48016;50.284;18.860;2024-01-25T08:18:47;9.30;;;2.00;;
62056;SDS011;48016;50.284;18.860;2024-01-25T08:21:14;12.20;;;2.40;;
62056;SDS011;48016;50.284;18.860;2024-01-25T08:23:41;7.10;;;1.80;;
62056;SDS011;48016;50.284;18.860;2024-01-25T08:26:08;7.80;;;2.70;;
62056;SDS011;48016;50.284;18.860;2024-01-25T08:28:42;5.90;;;2.50;;
62056;SDS011;48016;50.284;18.860;2024-01-25T08:31:12;9.10;;;2.00;;
62056;SDS011;48016;50.284;18.860;2024-01-25T08:33:39;7.10;;;2.10;;
62056;SDS011;48016;50.284;18.860;2024-01-25T08:36:16;12.50;;;3.10;;
62056;SDS011;48016;50.284;18.860;2024-01-25T08:38:43;8.50;;;1.90;;
62056;SDS011;48016;50.284;18.860;2024-01-25T08:41:10;9.80;;;2.20;;
62056;SDS011;48016;50.284;18.860;2024-01-25T08:43:37;10.20;;;2.20;;
62056;SDS011;48016;50.284;18.860;2024-01-25T08:46:06;10.80;;;2.60;;
62056;SDS011;48016;50.284;18.860;2024-01-25T08:48:33;10.00;;;2.60;;
62056;SDS011;48016;50.284;18.860;2024-01-25T08:51:00;12.40;;;3.10;;
62056;SDS011;48016;50.284;18.860;2024-01-25T08:53:27;8.30;;;2.10;;
62056;SDS011;48016;50.284;18.860;2024-01-25T08:55:54;9.10;;;2.40;;
62056;SDS011;48016;50.284;18.860;2024-01-25T08:58:21;12.10;;;3.10;;
62056;SDS011;48016;50.284;18.860;2024-01-25T09:03:16;9.50;;;2.40;;
62056;SDS011;48016;50.284;18.860;2024-01-25T09:05:42;6.80;;;2.30;;
62056;SDS011;48016;50.284;18.860;2024-01-25T09:08:12;10.20;;;2.80;;
62056;SDS011;48016;50.284;18.860;2024-01-25T09:13:07;8.20;;;2.50;;
62056;SDS011;48016;50.284;18.860;2024-01-25T09:18:01;11.70;;;2.90;;
62056;SDS011;48016;50.284;18.860;2024-01-25T09:20:28;7.20;;;2.80;;
62056;SDS011;48016;50.284;18.860;2024-01-25T09:22:55;9.90;;;2.90;;
62056;SDS011;48016;50.284;18.860;2024-01-25T09:25:22;8.00;;;2.80;;
62056;SDS011;48016;50.284;18.860;2024-01-25T09:27:51;10.00;;;2.80;;
62056;SDS011;48016;50.284;18.860;2024-01-25T09:30:18;8.60;;;2.30;;
62056;SDS011;48016;50.284;18.860;2024-01-25T09:32:45;19.00;;;3.80;;
62056;SDS011;48016;50.284;18.860;2024-01-25T09:35:12;10.90;;;3.00;;
62056;SDS011;48016;50.284;18.860;2024-01-25T09:37:39;9.90;;;2.80;;
62056;SDS011;48016;50.284;18.860;2024-01-25T09:40:06;8.30;;;1.80;;
62056;SDS011;48016;50.284;18.860;2024-01-25T09:42:34;6.70;;;2.60;;
62056;SDS011;48016;50.284;18.860;2024-01-25T09:45:03;10.30;;;2.30;;
62056;SDS011;48016;50.284;18.860;2024-01-25T09:47:37;12.30;;;2.60;;
62056;SDS011;48016;50.284;18.860;2024-01-25T09:50:04;9.00;;;2.90;;
62056;SDS011;48016;50.284;18.860;2024-01-25T09:52:34;8.80;;;2.30;;
62056;SDS011;48016;50.284;18.860;2024-01-25T09:55:02;11.40;;;2.40;;
62056;SDS011;48016;50.284;18.860;2024-01-25T09:57:35;7.90;;;2.20;;
62056;SDS011;48016;50.284;18.860;2024-01-25T10:00:05;6.70;;;1.90;;
62056;SDS011;48016;50.284;18.860;2024-01-25T10:02:38;10.50;;;2.40;;
62056;SDS011;48016;50.284;18.860;2024-01-25T10:05:05;9.60;;;2.30;;
62056;SDS011;48016;50.284;18.860;2024-01-25T10:07:43;7.60;;;2.30;;
62056;SDS011;48016;50.284;18.860;2024-01-25T10:10:12;9.30;;;2.00;;
62056;SDS011;48016;50.284;18.860;2024-01-25T10:12:40;7.60;;;2.10;;
62056;SDS011;48016;50.284;18.860;2024-01-25T10:15:09;7.60;;;2.60;;
62056;SDS011;48016;50.284;18.860;2024-01-25T10:20:05;9.20;;;2.20;;
62056;SDS011;48016;50.284;18.860;2024-01-25T10:22:37;9.70;;;2.60;;
62056;SDS011;48016;50.284;18.860;2024-01-25T10:25:11;10.50;;;2.80;;
62056;SDS011;48016;50.284;18.860;2024-01-25T10:27:40;11.90;;;3.10;;
62056;SDS011;48016;50.284;18.860;2024-01-25T10:30:07;10.00;;;2.90;;
62056;SDS011;48016;50.284;18.860;2024-01-25T10:32:36;9.20;;;2.70;;
62056;SDS011;48016;50.284;18.860;2024-01-25T10:35:03;11.40;;;2.50;;
62056;SDS011;48016;50.284;18.860;2024-01-25T10:37:31;9.50;;;2.00;;
62056;SDS011;48016;50.284;18.860;2024-01-25T10:39:58;12.10;;;2.60;;
62056;SDS011;48016;50.284;18.860;2024-01-25T10:42:27;10.30;;;2.10;;
62056;SDS011;48016;50.284;18.860;2024-01-25T10:44:53;7.90;;;2.30;;
62056;SDS011;48016;50.284;18.860;2024-01-25T10:47:20;9.50;;;2.60;;
62056;SDS011;48016;50.284;18.860;2024-01-25T10:49:48;8.60;;;1.90;;
62056;SDS011;48016;50.284;18.860;2024-01-25T10:52:16;9.70;;;2.40;;
62056;SDS011;48016;50.284;18.860;2024-01-25T10:54:44;9.00;;;2.40;;
62056;SDS011;48016;50.284;18.860;2024-01-25T10:57:11;8.00;;;2.10;;
62056;SDS011;48016;50.284;18.860;2024-01-25T10:59:38;10.80;;;2.50;;
62056;SDS011;48016;50.284;18.860;2024-01-25T11:02:04;9.30;;;2.30;;
62056;SDS011;48016;50.284;18.860;2024-01-25T11:04:33;8.20;;;2.40;;
62056;SDS011;48016;50.284;18.860;2024-01-25T11:07:06;6.30;;;2.40;;
62056;SDS011;48016;50.284;18.860;2024-01-25T11:09:36;7.70;;;2.00;;
62056;SDS011;48016;50.284;18.860;2024-01-25T11:17:20;8.30;;;1.90;;
62056;SDS011;48016;50.284;18.860;2024-01-25T11:19:49;9.50;;;2.30;;
62056;SDS011;48016;50.284;18.860;2024-01-25T11:22:17;8.50;;;1.80;;
62056;SDS011;48016;50.284;18.860;2024-01-25T11:24:47;8.60;;;2.30;;
62056;SDS011;48016;50.284;18.860;2024-01-25T11:27:16;8.10;;;2.40;;
62056;SDS011;48016;50.284;18.860;2024-01-25T11:29:44;10.00;;;2.30;;
62056;SDS011;48016;50.284;18.860;2024-01-25T11:32:11;9.70;;;2.00;;
62056;SDS011;48016;50.284;18.860;2024-01-25T11:34:38;9.10;;;2.40;;
62056;SDS011;48016;50.284;18.860;2024-01-25T11:37:05;9.10;;;2.00;;
62056;SDS011;48016;50.284;18.860;2024-01-25T11:39:32;8.90;;;2.70;;
62056;SDS011;48016;50.284;18.860;2024-01-25T11:41:59;7.80;;;2.40;;
62056;SDS011;48016;50.284;18.860;2024-01-25T11:44:26;8.60;;;2.20;;
62056;SDS011;48016;50.284;18.860;2024-01-25T11:46:54;14.90;;;3.30;;
62056;SDS011;48016;50.284;18.860;2024-01-25T11:49:23;9.20;;;2.30;;
62056;SDS011;48016;50.284;18.860;2024-01-25T11:51:51;6.80;;;2.30;;
62056;SDS011;48016;50.284;18.860;2024-01-25T11:54:18;7.60;;;2.40;;
62056;SDS011;48016;50.284;18.860;2024-01-25T11:59:13;6.60;;;2.20;;
62056;SDS011;48016;50.284;18.860;2024-01-25T12:01:40;9.10;;;1.90;;
62056;SDS011;48016;50.284;18.860;2024-01-25T12:04:07;9.20;;;2.30;;
62056;SDS011;48016;50.284;18.860;2024-01-25T12:09:08;9.00;;;3.50;;
62056;SDS011;48016;50.284;18.860;2024-01-25T12:11:36;9.30;;;2.30;;
62056;SDS011;48016;50.284;18.860;2024-01-25T12:14:07;9.10;;;3.40;;
62056;SDS011;48016;50.284;18.860;2024-01-25T12:16:36;8.30;;;2.60;;
62056;SDS011;48016;50.284;18.860;2024-01-25T12:19:02;8.00;;;2.60;;
62056;SDS011;48016;50.284;18.860;2024-01-25T12:21:29;9.40;;;3.20;;
62056;SDS011;48016;50.284;18.860;2024-01-25T12:24:00;12.00;;;2.60;;
62056;SDS011;48016;50.284;18.860;2024-01-25T12:26:27;7.00;;;3.30;;
62056;SDS011;48016;50.284;18.860;2024-01-25T12:28:54;7.60;;;2.40;;
62056;SDS011;48016;50.284;18.860;2024-01-25T12:31:21;10.70;;;3.10;;
62056;SDS011;48016;50.284;18.860;2024-01-25T12:33:47;10.60;;;3.10;;
62056;SDS011;48016;50.284;18.860;2024-01-25T12:36:14;10.00;;;3.60;;
62056;SDS011;48016;50.284;18.860;2024-01-25T12:41:08;9.80;;;2.60;;
62056;SDS011;48016;50.284;18.860;2024-01-25T12:43:35;11.80;;;3.00;;
62056;SDS011;48016;50.284;18.860;2024-01-25T12:46:02;12.60;;;2.90;;
62056;SDS011;48016;50.284;18.860;2024-01-25T12:48:29;9.40;;;2.00;;
62056;SDS011;48016;50.284;18.860;2024-01-25T12:50:57;10.60;;;3.00;;
62056;SDS011;48016;50.284;18.860;2024-01-25T12:53:25;8.80;;;2.40;;
62056;SDS011;48016;50.284;18.860;2024-01-25T12:55:52;6.90;;;2.20;;
62056;SDS011;48016;50.284;18.860;2024-01-25T12:58:19;9.70;;;2.40;;
62056;SDS011;48016;50.284;18.860;2024-01-25T13:00:46;12.30;;;2.70;;
62056;SDS011;48016;50.284;18.860;2024-01-25T13:03:13;9.50;;;2.30;;
62056;SDS011;48016;50.284;18.860;2024-01-25T13:05:40;11.10;;;2.60;;
62056;SDS011;48016;50.284;18.860;2024-01-25T13:08:07;8.00;;;2.40;;
62056;SDS011;48016;50.284;18.860;2024-01-25T13:10:34;6.90;;;2.60;;
62056;SDS011;48016;50.284;18.860;2024-01-25T13:13:01;8.30;;;2.60;;
62056;SDS011;48016;50.284;18.860;2024-01-25T13:15:29;7.50;;;2.60;;
62056;SDS011;48016;50.284;18.860;2024-01-25T13:17:57;10.40;;;3.20;;
62056;SDS011;48016;50.284;18.860;2024-01-25T13:22:52;15.10;;;3.60;;
62056;SDS011;48016;50.284;18.860;2024-01-25T13:25:18;6.90;;;2.70;;
62056;SDS011;48016;50.284;18.860;2024-01-25T13:27:46;10.80;;;4.10;;
62056;SDS011;48016;50.284;18.860;2024-01-25T13:30:13;10.50;;;3.30;;
62056;SDS011;48016;50.284;18.860;2024-01-25T13:32:41;10.70;;;3.50;;
62056;SDS011;48016;50.284;18.860;2024-01-25T13:35:08;11.00;;;3.00;;
62056;SDS011;48016;50.284;18.860;2024-01-25T13:37:35;12.00;;;3.50;;
62056;SDS011;48016;50.284;18.860;2024-01-25T13:40:02;7.50;;;2.40;;
62056;SDS011;48016;50.284;18.860;2024-01-25T13:42:30;10.30;;;3.00;;
62056;SDS011;48016;50.284;18.860;2024-01-25T13:44:57;12.30;;;3.20;;
62056;SDS011;48016;50.284;18.860;2024-01-25T13:47:24;7.90;;;2.90;;
62056;SDS011;48016;50.284;18.860;2024-01-25T13:49:51;10.00;;;2.60;;
62056;SDS011;48016;50.284;18.860;2024-01-25T13:52:18;13.10;;;4.00;;
62056;SDS011;48016;50.284;18.860;2024-01-25T13:54:46;7.90;;;3.60;;
62056;SDS011;48016;50.284;18.860;2024-01-25T13:57:18;11.90;;;3.30;;
62056;SDS011;48016;50.284;18.860;2024-01-25T13:59:50;9.40;;;3.00;;
62056;SDS011;48016;50.284;18.860;2024-01-25T14:02:18;10.10;;;3.60;;
62056;SDS011;48016;50.284;18.860;2024-01-25T14:04:45;9.60;;;3.10;;
62056;SDS011;48016;50.284;18.860;2024-01-25T14:07:13;12.10;;;3.00;;
62056;SDS011;48016;50.284;18.860;2024-01-25T14:09:41;11.30;;;2.80;;
62056;SDS011;48016;50.284;18.860;2024-01-25T14:12:09;9.80;;;3.00;;
62056;SDS011;48016;50.284;18.860;2024-01-25T14:14:36;9.80;;;3.10;;
62056;SDS011;48016;50.284;18.860;2024-01-25T14:17:03;10.80;;;3.50;;
62056;SDS011;48016;50.284;18.860;2024-01-25T14:19:30;10.40;;;3.00;;
62056;SDS011;48016;50.284;18.860;2024-01-25T14:21:57;9.90;;;2.70;;
62056;SDS011;48016;50.284;18.860;2024-01-25T14:24:24;12.40;;;3.30;;
62056;SDS011;48016;50.284;18.860;2024-01-25T14:26:50;10.30;;;2.50;;
62056;SDS011;48016;50.284;18.860;2024-01-25T14:29:17;6.60;;;2.40;;
62056;SDS011;48016;50.284;18.860;2024-01-25T14:31:44;11.40;;;2.80;;
62056;SDS011;48016;50.284;18.860;2024-01-25T14:34:12;11.80;;;2.50;;
62056;SDS011;48016;50.284;18.860;2024-01-25T14:36:39;10.10;;;2.60;;
62056;SDS011;48016;50.284;18.860;2024-01-25T14:39:06;10.40;;;2.60;;
62056;SDS011;48016;50.284;18.860;2024-01-25T14:41:35;7.30;;;2.60;;
62056;SDS011;48016;50.284;18.860;2024-01-25T14:44:02;11.60;;;2.80;;
62056;SDS011;48016;50.284;18.860;2024-01-25T14:46:29;14.60;;;3.30;;
62056;SDS011;48016;50.284;18.860;2024-01-25T14:48:56;11.40;;;2.40;;
62056;SDS011;48016;50.284;18.860;2024-01-25T14:51:26;8.00;;;2.60;;
62056;SDS011;48016;50.284;18.860;2024-01-25T14:53:53;7.10;;;2.20;;
62056;SDS011;48016;50.284;18.860;2024-01-25T14:56:20;15.10;;;3.40;;
62056;SDS011;48016;50.284;18.860;2024-01-25T14:58:46;16.00;;;3.80;;
62056;SDS011;48016;50.284;18.860;2024-01-25T15:01:14;10.80;;;4.20;;
62056;SDS011;48016;50.284;18.860;2024-01-25T15:03:44;12.80;;;5.80;;
62056;SDS011;48016;50.284;18.860;2024-01-25T15:06:14;9.40;;;2.80;;
62056;SDS011;48016;50.284;18.860;2024-01-25T15:08:41;12.10;;;2.60;;
62056;SDS011;48016;50.284;18.860;2024-01-25T15:11:08;11.10;;;3.50;;
62056;SDS011;48016;50.284;18.860;2024-01-25T15:13:35;12.90;;;4.90;;
62056;SDS011;48016;50.284;18.860;2024-01-25T15:16:02;10.40;;;4.00;;
62056;SDS011;48016;50.284;18.860;2024-01-25T15:18:28;10.50;;;4.00;;
62056;SDS011;48016;50.284;18.860;2024-01-25T15:20:55;15.40;;;3.70;;